Página principal
METAR-TAF:

METAR-TAF

Aeroportos :

Yap, Yap Island, Micronésia

latitude: 09-29N, longitude: 138-05E, altura: 28 m

Observação actual do tempo

O boletim foi feito há 19 minutos, às 07:51 UTC
Vento 5 kt com direcção variável
Temperatura 26°C
Humidade 89%
Pressão 1007 hPa
Visibilidade: 16.1 km
Nuvens dispersasa uma altura de 1600 ft, Cumulus congestus.
Nuvens fragmentadasa uma altura de 13000 ft
Encobertoa uma altura de 30000 ft
aguaceiros fracos de chuva

METAR: PTYA 210751Z VRB05KT 10SM -SHRA SCT016TCU BKN130 OVC300 26/24 A2975 RMK SHRAB06 TCU ALQDS SLP076 T02580238

Hora: 18:10 (08:10 UTC)

Previsão

O boletim foi feito há 2 horas e 50 minutos, às 05:20 UTC
Previsão válida de 21 às 06 UTC a 22 às 06 UTC
Vento 5 kt com direcção variável
Visibilidade: 10 km
Poucas nuvensa uma altura de 1600 ft
Nuvens dispersasa uma altura de 5000 ft
Nuvens fragmentadasa uma altura de 13000 ft
aguaceiros nas vizinhanças

TAF: PTYA 210520Z 2106/2206 VRB05KT P6SM VCSH FEW016 SCT050 BKN130

Observações e previsões do tempo de mais de 4000 aeroportos (mensagens METAR e TAF).

As estações disponíveis são os pontos amarelos e vermelhos sobre o mapa.

Mova o rato sobre o mapa para ver o nome da estação.

Depois clique no ponto para visualizar as observações e previsões meteorológicas.

Para alterar o mapa : clique nos botões verdes com uma cruz preta para aumentar o zoom; no botão verde com uma pitada de zoom; ou nas setas verdes para mapas adjacentes.


METAR-TAF: